createdAt,value
2018-07-11T00:00:47.374Z,16.58
2018-07-11T00:03:18.935Z,16.26
2018-07-11T00:05:49.066Z,16.01
2018-07-11T00:08:19.298Z,16.08
2018-07-11T00:10:49.283Z,16.26
2018-07-11T00:13:19.199Z,16.34
2018-07-11T00:15:49.143Z,16.09
2018-07-11T00:18:18.744Z,16.04
2018-07-11T00:20:48.578Z,16.16
2018-07-11T00:23:18.325Z,16.25
2018-07-11T00:25:48.291Z,16.37
2018-07-11T00:28:18.362Z,16.43
2018-07-11T00:30:48.519Z,16.30
2018-07-11T00:33:18.654Z,16.23
2018-07-11T00:35:48.976Z,16.17
2018-07-11T00:38:18.995Z,16.13
2018-07-11T00:40:49.272Z,15.97
2018-07-11T00:43:19.127Z,15.93
2018-07-11T00:45:50.208Z,15.93
2018-07-11T00:48:20.075Z,15.99
2018-07-11T00:50:50.068Z,16.05
2018-07-11T00:53:22.015Z,15.92
2018-07-11T00:55:51.822Z,16.05
2018-07-11T00:58:26.402Z,15.97
2018-07-11T01:01:08.078Z,16.06
2018-07-11T01:03:47.198Z,16.05
2018-07-11T01:06:17.108Z,15.95
2018-07-11T01:08:47.205Z,15.97
2018-07-11T01:11:18.525Z,15.96
2018-07-11T01:13:49.307Z,15.83
2018-07-11T01:16:19.652Z,15.80
2018-07-11T01:19:06.033Z,15.55
2018-07-11T01:21:36.747Z,15.63
2018-07-11T01:24:06.570Z,15.46
2018-07-11T01:26:37.521Z,15.63
2018-07-11T01:29:07.590Z,15.60
2018-07-11T01:31:37.452Z,15.87
2018-07-11T01:34:07.218Z,15.77
2018-07-11T01:36:37.185Z,15.57
2018-07-11T01:39:07.255Z,15.76
2018-07-11T01:41:37.322Z,15.69
2018-07-11T01:44:07.079Z,15.79
2018-07-11T01:46:42.996Z,15.39
2018-07-11T01:49:12.720Z,15.28
2018-07-11T01:51:53.678Z,15.27
2018-07-11T01:54:23.949Z,15.43
2018-07-11T01:56:54.015Z,15.30
2018-07-11T01:59:25.664Z,15.12
2018-07-11T02:01:56.183Z,15.05
2018-07-11T02:04:26.328Z,15.06
2018-07-11T02:06:56.580Z,14.84
2018-07-11T02:09:27.032Z,14.76
2018-07-11T02:11:57.019Z,14.70
2018-07-11T02:14:26.830Z,14.64
2018-07-11T02:16:56.751Z,14.64
2018-07-11T02:19:26.478Z,14.86
2018-07-11T02:21:57.203Z,14.83
2018-07-11T02:24:27.251Z,14.94
2018-07-11T02:26:57.254Z,15.00
2018-07-11T02:29:27.202Z,14.96
2018-07-11T02:31:57.288Z,14.83
2018-07-11T02:34:32.386Z,14.94
2018-07-11T02:37:02.878Z,14.99
2018-07-11T02:39:33.318Z,14.98
2018-07-11T02:42:03.303Z,15.04
2018-07-11T02:44:33.045Z,15.06
2018-07-11T02:47:07.795Z,14.74
2018-07-11T02:49:37.609Z,15.09
2018-07-11T02:52:07.544Z,15.21
2018-07-11T02:54:37.542Z,15.21
2018-07-11T02:57:07.413Z,15.19
2018-07-11T02:59:37.295Z,15.06
2018-07-11T03:02:07.447Z,14.81
2018-07-11T03:04:37.872Z,14.80
2018-07-11T03:07:08.733Z,14.84
2018-07-11T03:09:38.555Z,14.85
2018-07-11T03:12:08.591Z,14.81
2018-07-11T03:14:41.500Z,14.81
2018-07-11T03:17:11.242Z,14.72
2018-07-11T03:19:40.924Z,14.75
2018-07-11T03:22:10.996Z,14.77
2018-07-11T03:24:41.143Z,14.65
2018-07-11T03:27:11.109Z,14.99
2018-07-11T03:29:41.263Z,14.91
2018-07-11T03:32:11.356Z,15.01
2018-07-11T03:34:41.557Z,15.01
2018-07-11T03:37:11.405Z,14.97
2018-07-11T03:39:42.093Z,14.93
2018-07-11T03:42:11.724Z,15.02
2018-07-11T03:44:41.928Z,15.08
2018-07-11T03:47:11.688Z,14.96
2018-07-11T03:49:41.559Z,15.07
2018-07-11T03:52:11.454Z,15.08
2018-07-11T03:54:41.459Z,15.21
2018-07-11T03:57:11.214Z,15.26
2018-07-11T03:59:41.028Z,15.26
2018-07-11T04:02:10.925Z,15.31
2018-07-11T04:04:40.808Z,15.27
2018-07-11T04:07:10.564Z,15.44
2018-07-11T04:09:40.498Z,15.55
2018-07-11T04:12:10.188Z,15.58
2018-07-11T04:14:39.833Z,15.65
2018-07-11T04:17:09.512Z,15.81
2018-07-11T04:19:39.486Z,15.92
2018-07-11T04:22:09.319Z,16.15
2018-07-11T04:24:39.393Z,16.28
2018-07-11T04:27:09.037Z,16.39
2018-07-11T04:29:39.316Z,16.41
2018-07-11T04:32:09.339Z,16.57
2018-07-11T04:34:39.445Z,16.61
2018-07-11T04:37:09.359Z,16.68
2018-07-11T04:39:39.346Z,16.79
2018-07-11T04:42:09.239Z,16.90
2018-07-11T04:44:39.823Z,17.03
2018-07-11T04:47:09.671Z,17.14
2018-07-11T04:49:39.538Z,17.24
2018-07-11T04:52:09.770Z,17.31
2018-07-11T04:54:39.512Z,17.43
2018-07-11T04:57:09.217Z,17.55
2018-07-11T04:59:38.895Z,17.64
2018-07-11T05:02:08.618Z,17.76
2018-07-11T05:04:38.373Z,17.85
2018-07-11T05:07:08.292Z,18.02
2018-07-11T05:09:38.154Z,18.10
2018-07-11T05:12:08.253Z,18.16
2018-07-11T05:14:37.810Z,18.14
2018-07-11T05:17:07.415Z,18.22
2018-07-11T05:19:37.305Z,18.45
2018-07-11T05:22:07.333Z,18.57
2018-07-11T05:24:37.456Z,18.57
2018-07-11T05:27:07.212Z,18.68
2018-07-11T05:29:36.940Z,18.75
2018-07-11T05:32:07.199Z,18.67
2018-07-11T05:34:36.997Z,18.76
2018-07-11T05:37:06.873Z,18.87
2018-07-11T05:39:36.869Z,18.98
2018-07-11T05:42:06.931Z,18.97
2018-07-11T05:44:36.659Z,18.89
2018-07-11T05:47:07.249Z,19.13
2018-07-11T05:49:37.044Z,19.18
2018-07-11T05:52:06.889Z,19.27
2018-07-11T05:54:36.897Z,19.32
2018-07-11T05:57:06.892Z,19.54
2018-07-11T05:59:36.911Z,19.64
2018-07-11T06:02:06.713Z,19.72
2018-07-11T06:04:36.686Z,19.73
2018-07-11T06:07:06.831Z,19.80
2018-07-11T06:09:36.801Z,19.99
2018-07-11T06:12:06.561Z,20.24
2018-07-11T06:14:36.446Z,20.38
2018-07-11T06:17:06.165Z,20.49
2018-07-11T06:19:35.847Z,20.42
2018-07-11T06:22:05.521Z,20.45
2018-07-11T06:24:35.391Z,20.47
2018-07-11T06:27:05.526Z,20.73
2018-07-11T06:29:35.395Z,20.72
2018-07-11T06:32:05.254Z,20.80
2018-07-11T06:34:34.909Z,20.71
2018-07-11T06:37:04.916Z,20.71
2018-07-11T06:39:34.788Z,20.89
2018-07-11T06:42:04.767Z,21.04
2018-07-11T06:44:35.035Z,20.95
2018-07-11T06:47:09.826Z,21.14
2018-07-11T06:49:39.517Z,21.29
2018-07-11T06:52:09.226Z,21.30
2018-07-11T06:54:38.951Z,21.46
2018-07-11T06:57:08.816Z,21.64
2018-07-11T06:59:38.693Z,21.10
2018-07-11T07:02:08.655Z,21.20
2018-07-11T07:04:38.412Z,21.63
2018-07-11T07:07:08.200Z,21.54
2018-07-11T07:09:38.109Z,21.70
2018-07-11T07:12:08.231Z,21.77
2018-07-11T07:14:38.076Z,21.80
2018-07-11T07:17:07.789Z,21.91
2018-07-11T07:19:37.375Z,21.90
2018-07-11T07:22:07.200Z,22.04
2018-07-11T07:24:37.219Z,21.85
2018-07-11T07:27:06.867Z,22.11
2018-07-11T07:29:36.762Z,22.25
2018-07-11T07:32:06.859Z,22.61
2018-07-11T07:34:36.916Z,22.50
2018-07-11T07:37:06.555Z,22.52
2018-07-11T07:39:36.834Z,22.37
2018-07-11T07:42:06.855Z,22.52
2018-07-11T07:44:36.995Z,22.63
2018-07-11T07:47:07.984Z,22.52
2018-07-11T07:49:38.117Z,22.62
2018-07-11T07:52:07.827Z,22.82
2018-07-11T07:54:37.679Z,22.98
2018-07-11T07:57:07.885Z,23.11
2018-07-11T07:59:38.029Z,23.04
2018-07-11T08:02:08.020Z,23.01
2018-07-11T08:04:38.028Z,23.20
2018-07-11T08:07:07.961Z,22.99
2018-07-11T08:09:37.871Z,23.03
2018-07-11T08:12:07.593Z,23.27
2018-07-11T08:14:37.383Z,23.33
2018-07-11T08:17:07.548Z,23.31
2018-07-11T08:19:37.171Z,23.29
2018-07-11T08:22:17.704Z,23.27
2018-07-11T08:24:58.140Z,23.52
2018-07-11T08:27:38.859Z,23.67
2018-07-11T08:32:54.667Z,23.35
2018-07-11T08:37:39.954Z,23.60
2018-07-11T08:41:24.219Z,23.45
2018-07-11T08:44:35.824Z,23.59
2018-07-11T08:47:15.351Z,23.72
2018-07-11T08:49:56.520Z,23.81
2018-07-11T08:52:35.610Z,23.88
2018-07-11T08:57:22.242Z,24.06
2018-07-11T09:01:00.647Z,24.17
2018-07-11T09:03:55.920Z,24.27
2018-07-11T09:07:40.306Z,24.02
2018-07-11T09:10:48.436Z,24.49
2018-07-11T09:14:34.137Z,24.42
2018-07-11T09:17:14.333Z,24.83
2018-07-11T09:19:57.168Z,24.84
2018-07-11T09:23:44.327Z,25.05
2018-07-11T09:26:14.259Z,25.39
2018-07-11T09:31:12.283Z,25.71
2018-07-11T09:33:42.007Z,25.71
2018-07-11T09:36:11.791Z,25.64
2018-07-11T09:38:41.976Z,26.14
2018-07-11T09:41:11.878Z,26.21
2018-07-11T09:43:42.385Z,26.21
2018-07-11T09:46:12.359Z,26.30
2018-07-11T09:48:42.236Z,25.70
2018-07-11T09:51:12.023Z,25.21
2018-07-11T09:53:41.766Z,26.02
2018-07-11T09:56:11.415Z,26.20
2018-07-11T09:58:41.600Z,26.64
2018-07-11T10:01:16.544Z,26.47
2018-07-11T10:03:46.798Z,26.60
2018-07-11T10:06:16.811Z,26.75
2018-07-11T10:08:47.030Z,26.85
2018-07-11T10:11:16.835Z,27.17
2018-07-11T10:13:46.683Z,27.25
2018-07-11T10:16:16.790Z,27.54
2018-07-11T10:18:59.430Z,28.03
2018-07-11T10:21:31.176Z,28.88
2018-07-11T10:24:01.014Z,28.68
2018-07-11T10:26:30.721Z,28.93
2018-07-11T10:29:00.459Z,29.46
2018-07-11T10:31:30.776Z,29.60
2018-07-11T10:34:00.412Z,29.49
2018-07-11T10:36:30.128Z,29.85
2018-07-11T10:38:59.941Z,29.78
2018-07-11T10:41:29.899Z,28.88
2018-07-11T10:43:59.738Z,28.82
2018-07-11T10:46:29.492Z,29.49
2018-07-11T10:48:59.432Z,29.89
2018-07-11T10:51:29.135Z,30.08
2018-07-11T10:53:59.199Z,29.62
2018-07-11T10:56:28.771Z,29.16
2018-07-11T10:58:58.323Z,28.88
2018-07-11T11:01:27.890Z,28.41
2018-07-11T11:03:57.650Z,28.26
2018-07-11T11:06:27.455Z,27.97
2018-07-11T11:08:57.001Z,29.04
2018-07-11T11:11:26.839Z,29.74
2018-07-11T11:13:56.483Z,29.84
2018-07-11T11:16:26.376Z,30.46
2018-07-11T11:18:56.274Z,30.18
2018-07-11T11:21:26.182Z,31.15
2018-07-11T11:23:55.983Z,31.24
2018-07-11T11:26:25.720Z,30.94
2018-07-11T11:28:55.363Z,31.36
2018-07-11T11:31:25.002Z,31.14
2018-07-11T11:33:54.636Z,30.63
2018-07-11T11:36:24.323Z,30.96
2018-07-11T11:38:54.221Z,31.06
2018-07-11T11:41:24.158Z,30.84
2018-07-11T11:43:53.878Z,30.70
2018-07-11T11:46:23.878Z,31.09
2018-07-11T11:48:53.620Z,30.29
2018-07-11T11:51:23.266Z,29.59
2018-07-11T11:53:52.971Z,30.60
2018-07-11T11:56:22.720Z,30.52
2018-07-11T11:58:52.593Z,30.82
2018-07-11T12:01:22.298Z,30.22
2018-07-11T12:03:52.314Z,31.54
2018-07-11T12:06:22.231Z,31.61
2018-07-11T12:08:52.418Z,32.05
2018-07-11T12:11:22.327Z,30.88
2018-07-11T12:13:52.299Z,32.07
2018-07-11T12:16:22.134Z,32.52
2018-07-11T12:18:51.790Z,32.48
2018-07-11T12:21:21.409Z,32.78
2018-07-11T12:23:51.130Z,33.35
2018-07-11T12:26:21.092Z,33.71
2018-07-11T12:28:50.860Z,34.14
2018-07-11T12:31:20.518Z,35.02
2018-07-11T12:33:50.171Z,35.01
2018-07-11T12:36:19.926Z,35.44
2018-07-11T12:38:53.709Z,36.01
2018-07-11T12:41:23.492Z,36.60
2018-07-11T12:43:53.643Z,36.80
2018-07-11T12:46:23.426Z,37.27
2018-07-11T12:48:58.615Z,37.05
2018-07-11T12:51:28.579Z,37.50
2018-07-11T12:53:58.367Z,37.25
2018-07-11T12:56:28.683Z,37.59
2018-07-11T12:58:58.785Z,37.25
2018-07-11T13:01:29.197Z,37.93
2018-07-11T13:03:59.590Z,35.71
2018-07-11T13:06:30.107Z,35.24
2018-07-11T13:08:59.971Z,35.89
2018-07-11T13:11:29.615Z,35.84
2018-07-11T13:13:59.395Z,33.77
2018-07-11T13:16:29.101Z,34.67
2018-07-11T13:18:59.025Z,34.40
2018-07-11T13:21:28.898Z,34.98
2018-07-11T13:23:58.587Z,35.14
2018-07-11T13:26:28.647Z,35.04
2018-07-11T13:28:58.538Z,35.50
2018-07-11T13:31:28.305Z,36.06
2018-07-11T13:33:57.915Z,36.41
2018-07-11T13:36:27.690Z,36.27
2018-07-11T13:38:57.436Z,36.15
2018-07-11T13:41:27.584Z,36.94
2018-07-11T13:43:57.328Z,37.20
2018-07-11T13:46:27.133Z,37.38
2018-07-11T13:48:56.850Z,36.30
2018-07-11T13:51:26.640Z,36.33
2018-07-11T13:53:56.335Z,37.14
2018-07-11T13:56:26.647Z,36.96
2018-07-11T13:58:56.815Z,37.10
2018-07-11T14:01:26.450Z,37.14
2018-07-11T14:03:56.096Z,37.21
2018-07-11T14:06:25.851Z,36.16
2018-07-11T14:08:56.067Z,36.29
2018-07-11T14:11:26.431Z,35.15
2018-07-11T14:13:56.645Z,35.52
2018-07-11T14:16:26.519Z,36.24
2018-07-11T14:18:56.214Z,35.60
2018-07-11T14:21:26.103Z,35.32
2018-07-11T14:23:56.151Z,35.08
2018-07-11T14:26:26.026Z,33.75
2018-07-11T14:28:55.871Z,31.87
2018-07-11T14:31:36.438Z,33.16
2018-07-11T14:34:08.174Z,32.64
2018-07-11T14:36:38.200Z,32.52
2018-07-11T14:39:08.530Z,32.84
2018-07-11T14:41:38.219Z,32.71
2018-07-11T14:44:08.066Z,32.54
2018-07-11T14:46:37.674Z,32.53
2018-07-11T14:49:07.518Z,32.95
2018-07-11T14:51:37.162Z,33.24
2018-07-11T14:54:07.755Z,33.56
2018-07-11T14:56:38.668Z,33.83
2018-07-11T14:59:10.328Z,34.48
2018-07-11T15:01:40.138Z,34.33
2018-07-11T15:04:09.944Z,34.36
2018-07-11T15:06:39.758Z,34.35
2018-07-11T15:09:09.734Z,34.40
2018-07-11T15:11:39.480Z,34.02
2018-07-11T15:14:15.858Z,32.82
2018-07-11T15:16:45.590Z,32.95
2018-07-11T15:19:15.426Z,33.01
2018-07-11T15:21:45.307Z,32.91
2018-07-11T15:24:15.393Z,32.55
2018-07-11T15:26:45.317Z,32.32
2018-07-11T15:29:15.185Z,31.73
2018-07-11T15:31:44.910Z,31.14
2018-07-11T15:34:14.645Z,31.54
2018-07-11T15:36:44.616Z,31.29
2018-07-11T15:39:14.531Z,31.09
2018-07-11T15:41:44.451Z,30.87
2018-07-11T15:44:14.270Z,30.95
2018-07-11T15:46:43.983Z,31.17
2018-07-11T15:49:13.655Z,30.88
2018-07-11T15:51:43.674Z,30.70
2018-07-11T15:54:13.847Z,30.74
2018-07-11T15:56:44.838Z,30.49
2018-07-11T15:59:18.478Z,30.57
2018-07-11T16:01:53.195Z,30.52
2018-07-11T16:04:29.082Z,30.51
2018-07-11T16:07:04.107Z,30.80
2018-07-11T16:09:40.686Z,30.96
2018-07-11T16:12:10.770Z,31.47
2018-07-11T16:14:40.754Z,32.05
2018-07-11T16:17:10.462Z,32.72
2018-07-11T16:19:40.493Z,33.30
2018-07-11T16:22:10.415Z,33.91
2018-07-11T16:24:40.536Z,34.44
2018-07-11T16:27:10.363Z,34.93
2018-07-11T16:29:40.016Z,35.66
2018-07-11T16:32:10.434Z,36.07
2018-07-11T16:34:40.059Z,36.48
2018-07-11T16:37:09.972Z,37.06
2018-07-11T16:39:40.165Z,37.35
2018-07-11T16:42:09.897Z,37.80
2018-07-11T16:44:39.627Z,38.13
2018-07-11T16:47:09.364Z,38.45
2018-07-11T16:49:41.786Z,38.78
2018-07-11T16:52:12.170Z,38.96
2018-07-11T16:54:43.664Z,39.08
2018-07-11T16:57:14.758Z,39.42
2018-07-11T16:59:50.850Z,39.45
2018-07-11T17:02:23.751Z,39.35
2018-07-11T17:04:55.302Z,39.34
2018-07-11T17:07:26.390Z,38.95
2018-07-11T17:09:59.199Z,39.02
2018-07-11T17:12:29.067Z,38.69
2018-07-11T17:14:59.985Z,38.23
2018-07-11T17:17:34.817Z,38.33
2018-07-11T17:20:10.198Z,38.18
2018-07-11T17:22:54.364Z,37.83
2018-07-11T17:25:25.219Z,37.39
2018-07-11T17:28:00.983Z,37.13
2018-07-11T17:30:37.013Z,36.66
2018-07-11T17:33:08.172Z,36.35
2018-07-11T17:35:44.503Z,35.66
2018-07-11T17:38:14.389Z,35.54
2018-07-11T17:40:45.394Z,35.30
2018-07-11T17:43:17.562Z,34.98
2018-07-11T17:45:49.066Z,34.69
2018-07-11T17:48:26.959Z,34.21
2018-07-11T17:51:02.309Z,34.22
2018-07-11T17:53:39.377Z,34.01
2018-07-11T17:56:12.661Z,33.61
2018-07-11T17:58:53.850Z,33.27
2018-07-11T18:01:31.705Z,32.93
2018-07-11T18:05:26.907Z,32.43
2018-07-11T18:08:00.654Z,31.92
2018-07-11T18:10:51.648Z,31.43
2018-07-11T18:13:31.331Z,30.56
2018-07-11T18:17:10.884Z,30.16
2018-07-11T18:20:48.886Z,29.74
2018-07-11T18:23:26.326Z,29.18
2018-07-11T18:28:13.051Z,28.37
2018-07-11T18:31:51.355Z,27.56
2018-07-11T18:34:33.215Z,26.95
2018-07-11T18:37:20.805Z,26.82
2018-07-11T18:40:14.353Z,26.39
2018-07-11T18:43:00.029Z,25.54
2018-07-11T18:45:38.428Z,25.68
2018-07-11T18:48:19.238Z,25.48
2018-07-11T18:53:08.961Z,25.70
2018-07-11T18:56:18.324Z,24.64
2018-07-11T18:59:04.477Z,24.29
2018-07-11T19:01:45.662Z,23.88
2018-07-11T19:04:25.766Z,24.02
2018-07-11T19:07:05.168Z,23.93
2018-07-11T19:09:44.522Z,23.71
2018-07-11T19:12:21.844Z,23.43
2018-07-11T19:15:00.886Z,23.35
2018-07-11T19:17:44.753Z,22.86
2018-07-11T19:20:37.795Z,22.80
2018-07-11T19:23:21.963Z,22.55
2018-07-11T19:25:57.559Z,22.43
2018-07-11T19:29:33.929Z,22.18
2018-07-11T19:34:17.342Z,22.25
2018-07-11T19:37:02.552Z,22.05
2018-07-11T19:40:11.582Z,21.80
2018-07-11T19:42:50.840Z,21.76
2018-07-11T19:45:35.630Z,21.64
2018-07-11T19:48:14.595Z,21.70
2018-07-11T19:53:59.354Z,21.58
2018-07-11T19:56:35.343Z,21.27
2018-07-11T19:59:05.083Z,21.22
2018-07-11T20:01:34.775Z,21.29
2018-07-11T20:04:04.746Z,21.19
2018-07-11T20:06:34.678Z,20.98
2018-07-11T20:09:05.303Z,21.01
2018-07-11T20:11:35.567Z,21.08
2018-07-11T20:14:05.500Z,21.02
2018-07-11T20:16:35.302Z,20.84
2018-07-11T20:19:05.346Z,20.87
2018-07-11T20:21:35.070Z,20.86
2018-07-11T20:24:04.847Z,20.70
2018-07-11T20:26:34.530Z,20.61
2018-07-11T20:29:04.011Z,20.65
2018-07-11T20:31:33.741Z,20.82
2018-07-11T20:34:03.635Z,20.87
2018-07-11T20:36:33.499Z,20.74
2018-07-11T20:39:03.598Z,20.37
2018-07-11T20:41:33.215Z,20.26
2018-07-11T20:44:02.943Z,20.16
2018-07-11T20:46:33.565Z,20.17
2018-07-11T20:49:08.962Z,20.15
2018-07-11T20:51:38.970Z,20.12
2018-07-11T20:54:09.005Z,20.17
2018-07-11T20:56:38.683Z,20.09
2018-07-11T20:59:19.338Z,20.05
2018-07-11T21:02:00.060Z,19.94
2018-07-11T21:04:41.248Z,19.88
2018-07-11T21:11:32.777Z,19.91
2018-07-11T21:16:22.363Z,19.72
2018-07-11T21:18:59.031Z,19.58
2018-07-11T21:21:28.838Z,19.70
2018-07-11T21:23:58.382Z,19.63
2018-07-11T21:26:27.937Z,19.66
2018-07-11T21:28:57.626Z,19.69
2018-07-11T21:31:27.552Z,19.63
2018-07-11T21:33:57.628Z,19.63
2018-07-11T21:36:27.615Z,19.70
2018-07-11T21:38:57.464Z,19.53
2018-07-11T21:41:27.590Z,19.54
2018-07-11T21:43:57.247Z,19.47
2018-07-11T21:46:27.171Z,19.36
2018-07-11T21:48:56.925Z,19.29
2018-07-11T21:51:26.617Z,19.29
2018-07-11T21:53:56.695Z,19.11
2018-07-11T21:56:26.318Z,19.09
2018-07-11T21:58:56.273Z,19.08
2018-07-11T22:01:26.087Z,19.09
2018-07-11T22:03:55.746Z,19.12
2018-07-11T22:06:25.671Z,19.07
2018-07-11T22:08:55.671Z,19.13
2018-07-11T22:11:25.421Z,19.22
2018-07-11T22:13:55.116Z,19.18
2018-07-11T22:16:25.039Z,19.25
2018-07-11T22:18:54.963Z,19.21
2018-07-11T22:21:23.367Z,18.98
2018-07-11T22:23:51.322Z,18.91
2018-07-11T22:26:19.222Z,18.79
2018-07-11T22:28:47.134Z,18.92
2018-07-11T22:31:15.296Z,18.92
2018-07-11T22:33:43.354Z,18.98
2018-07-11T22:36:11.392Z,19.00
2018-07-11T22:38:39.378Z,18.95
2018-07-11T22:41:07.435Z,18.79
2018-07-11T22:43:35.447Z,18.73
2018-07-11T22:46:03.461Z,18.67
2018-07-11T22:48:31.550Z,18.85
2018-07-11T22:50:59.604Z,18.72
2018-07-11T22:53:27.510Z,18.61
2018-07-11T22:55:55.547Z,18.72
2018-07-11T22:58:23.538Z,18.69
2018-07-11T23:00:51.542Z,18.58
2018-07-11T23:03:19.518Z,18.59
2018-07-11T23:05:47.515Z,18.45
2018-07-11T23:08:15.936Z,18.47
2018-07-11T23:10:43.981Z,18.42
2018-07-11T23:13:11.933Z,18.38
2018-07-11T23:15:39.969Z,18.49
2018-07-11T23:18:08.007Z,18.57
2018-07-11T23:20:36.128Z,18.59
2018-07-11T23:23:04.146Z,18.40
2018-07-11T23:25:32.126Z,18.38
2018-07-11T23:28:00.034Z,18.32
2018-07-11T23:30:28.034Z,18.38
2018-07-11T23:32:56.140Z,18.45
2018-07-11T23:35:24.443Z,18.44
2018-07-11T23:37:52.478Z,18.17
2018-07-11T23:40:20.598Z,18.17
2018-07-11T23:42:48.670Z,18.05
2018-07-11T23:45:16.703Z,18.23
2018-07-11T23:47:44.742Z,18.22
2018-07-11T23:50:12.804Z,18.09
2018-07-11T23:52:40.812Z,18.12
2018-07-11T23:55:08.836Z,18.20
2018-07-11T23:57:36.802Z,18.15
